Time,TemperatureF,DewpointF,PressureIn,WindDirection,WindDirectionDegrees,WindSpeedMPH,WindSpeedGustMPH,Humidity,HourlyPrecipIn,Conditions,Clouds,dailyrainin,SolarRadiationWatts/m^2,SoftwareType,DateUTC
2013-01-12 00:00:00,15.0,14.0,-100.00,SSW,207,1.0,1.0,96,-99.99,,,0.00,-0.200000,,2013-01-12 08:00:00,
2013-01-12 00:52:00,15.0,14.0,-100.00,SSW,207,1.0,1.0,96,-99.99,,,0.00,-0.200000,,2013-01-12 08:52:00,
2013-01-12 01:00:00,16.0,15.0,-100.00,SW,219,1.0,2.0,97,-99.99,,,0.00,-0.200000,,2013-01-12 09:00:00,
2013-01-12 01:53:00,16.0,15.0,-100.00,SW,219,1.0,2.0,97,-99.99,,,0.00,-0.200000,,2013-01-12 09:53:00,
2013-01-12 02:00:00,15.0,14.0,-100.00,West,269,1.0,2.0,96,-99.99,,,0.00,-0.200000,,2013-01-12 10:00:00,
2013-01-12 02:52:00,15.0,14.0,-100.00,West,269,1.0,2.0,96,-99.99,,,0.00,-0.200000,,2013-01-12 10:52:00,
2013-01-12 03:00:00,15.0,14.0,-100.00,SW,228,0.0,1.0,96,-99.99,,,0.00,-0.200000,,2013-01-12 11:00:00,
2013-01-12 03:53:00,15.0,14.0,-100.00,SW,228,0.0,1.0,96,-99.99,,,0.00,-0.200000,,2013-01-12 11:53:00,
2013-01-12 04:00:00,14.0,13.0,-100.00,North,5,0.0,1.0,96,-99.99,,,0.00,-0.200000,,2013-01-12 12:00:00,
2013-01-12 04:53:00,14.0,13.0,-100.00,North,5,0.0,1.0,96,-99.99,,,0.00,-0.200000,,2013-01-12 12:53:00,
2013-01-12 05:00:00,15.0,14.0,-100.00,North,0,0.0,0.0,96,-99.99,,,0.00,-0.200000,,2013-01-12 13:00:00,
2013-01-12 05:53:00,15.0,14.0,-100.00,North,0,0.0,0.0,96,-99.99,,,0.00,-0.200000,,2013-01-12 13:53:00,
2013-01-12 06:00:00,15.0,14.0,-100.00,NNW,348,0.0,0.0,97,-99.99,,,-99.99,-0.200000,,2013-01-12 14:00:00,
2013-01-12 06:53:00,15.0,14.0,-100.00,NNW,348,0.0,0.0,97,-99.99,,,-99.99,-0.200000,,2013-01-12 14:53:00,
2013-01-12 07:00:00,16.0,15.0,-100.00,North,0,0.0,0.0,96,-99.99,,,0.00,-0.200000,,2013-01-12 15:00:00,
2013-01-12 07:53:00,16.0,15.0,-100.00,North,0,0.0,0.0,96,-99.99,,,0.00,-0.200000,,2013-01-12 15:53:00,
2013-01-12 08:00:00,16.0,15.0,-100.00,North,4,0.0,1.0,96,-99.99,,,0.00,-1.100000,,2013-01-12 16:00:00,
2013-01-12 08:53:00,16.0,15.0,-100.00,North,4,0.0,1.0,96,-99.99,,,0.00,-1.100000,,2013-01-12 16:53:00,
2013-01-12 09:00:00,17.0,16.0,-100.00,NNE,16,1.0,2.0,96,-99.99,,,0.00,2.400000,,2013-01-12 17:00:00,
2013-01-12 09:53:00,17.0,16.0,-100.00,NNE,16,1.0,2.0,96,-99.99,,,0.00,2.400000,,2013-01-12 17:53:00,
2013-01-12 10:00:00,18.0,16.0,-100.00,NE,49,1.0,2.0,95,-99.99,,,0.00,11.200000,,2013-01-12 18:00:00,
2013-01-12 10:53:00,18.0,16.0,-100.00,NE,49,1.0,2.0,95,-99.99,,,0.00,11.200000,,2013-01-12 18:53:00,
2013-01-12 11:00:00,20.0,18.0,-100.00,NNE,24,2.0,3.0,93,-99.99,,,0.00,24.000000,,2013-01-12 19:00:00,
2013-01-12 11:53:00,20.0,18.0,-100.00,NNE,24,2.0,3.0,93,-99.99,,,0.00,24.000000,,2013-01-12 19:53:00,
2013-01-12 12:00:00,21.0,19.0,-100.00,North,2,2.0,3.0,91,-99.99,,,0.00,25.700001,,2013-01-12 20:00:00,
2013-01-12 12:53:00,21.0,19.0,-100.00,North,2,2.0,3.0,91,-99.99,,,0.00,25.700001,,2013-01-12 20:53:00,
2013-01-12 13:00:00,23.0,21.0,-100.00,NNE,27,1.0,3.0,94,-99.99,,,0.00,25.700001,,2013-01-12 21:00:00,
2013-01-12 13:53:00,23.0,21.0,-100.00,NNE,27,1.0,3.0,94,-99.99,,,0.00,25.700001,,2013-01-12 21:53:00,
2013-01-12 14:00:00,20.0,18.0,-100.00,North,1,1.0,2.0,92,-99.99,,,0.00,14.300000,,2013-01-12 22:00:00,
2013-01-12 14:53:00,20.0,18.0,-100.00,North,1,1.0,2.0,92,-99.99,,,0.00,14.300000,,2013-01-12 22:53:00,
2013-01-12 15:00:00,20.0,19.0,-100.00,West,269,1.0,2.0,96,-99.99,,,0.00,11.200000,,2013-01-12 23:00:00,
2013-01-12 15:53:00,20.0,19.0,-100.00,West,269,1.0,2.0,96,-99.99,,,0.00,11.200000,,2013-01-12 23:53:00,
2013-01-12 16:00:00,19.0,19.0,-100.00,NNE,18,0.0,1.0,97,-99.99,,,0.00,5.500000,,2013-01-13 00:00:00,
2013-01-12 16:53:00,19.0,19.0,-100.00,NNE,18,0.0,1.0,97,-99.99,,,0.00,5.500000,,2013-01-13 00:53:00,
2013-01-12 17:00:00,17.0,16.0,-100.00,NW,313,1.0,2.0,98,-99.99,,,0.01,0.700000,,2013-01-13 01:00:00,
2013-01-12 17:53:00,17.0,16.0,-100.00,NW,313,1.0,2.0,98,-99.99,,,0.01,0.700000,,2013-01-13 01:53:00,
2013-01-12 18:00:00,17.0,16.0,-100.00,West,272,0.0,2.0,98,-99.99,,,0.00,-0.200000,,2013-01-13 02:00:00,
2013-01-12 18:53:00,17.0,16.0,-100.00,West,272,0.0,2.0,98,-99.99,,,0.00,-0.200000,,2013-01-13 02:53:00,
2013-01-12 19:00:00,15.0,15.0,-100.00,NE,35,0.0,2.0,97,-99.99,,,-99.99,-0.200000,,2013-01-13 03:00:00,
2013-01-12 19:53:00,15.0,15.0,-100.00,NE,35,0.0,2.0,97,-99.99,,,-99.99,-0.200000,,2013-01-13 03:53:00,
2013-01-12 20:00:00,17.0,15.0,-100.00,NNW,328,0.0,1.0,94,-99.99,,,-99.99,-0.200000,,2013-01-13 04:00:00,
2013-01-12 20:53:00,17.0,15.0,-100.00,NNW,328,0.0,1.0,94,-99.99,,,-99.99,-0.200000,,2013-01-13 04:53:00,
2013-01-12 21:00:00,15.0,13.0,-100.00,NNE,14,0.0,2.0,92,-99.99,,,0.00,-0.200000,,2013-01-13 05:00:00,
2013-01-12 21:53:00,15.0,13.0,-100.00,NNE,14,0.0,2.0,92,-99.99,,,0.00,-0.200000,,2013-01-13 05:53:00,
2013-01-12 22:00:00,16.0,14.0,-100.00,North,6,0.0,0.0,91,-99.99,,,0.00,-0.200000,,2013-01-13 06:00:00,
2013-01-12 22:52:00,16.0,14.0,-100.00,North,6,0.0,0.0,91,-99.99,,,0.00,-0.200000,,2013-01-13 06:52:00,
2013-01-12 23:00:00,16.0,14.0,-100.00,NNW,343,0.0,2.0,92,-99.99,,,0.00,-0.200000,,2013-01-13 07:00:00,
2013-01-12 23:52:00,16.0,14.0,-100.00,NNW,343,0.0,2.0,92,-99.99,,,0.00,-0.200000,,2013-01-13 07:52:00,